Mitch, Louisiana
Current Conditions -  °F | °C
As of 7:53 AM on Monday 24 Nov 2014 (Local Time) from KASD Reporting Station
Haze Haze  
Wind Chill: 67°   Ceiling: Unl
Heat Index: 67°   Visibility: 6mi
Dew Point: 64°   Wind: 5mph
Humidity: 90%   Direction: 270°W
Pressure: 29.84"   Gusts: NA
Location:  30.7419°N, 89.8828°W
Report Text: KASD 241353Z AUTO 27004KT 6SM BR CLR 19/18 A2984 RMK AO2 SLP104 T01940178
Loading
Personal Weather Stations






























Interactive Weather Map New forecast layout! Learn more

10-Day Weather Forecast

Advertisements
Track Severe Weather on mobile